createdAt,value
2022-09-14T00:01:28.865Z,82.00
2022-09-14T00:03:58.393Z,81.70
2022-09-14T00:06:27.364Z,81.40
2022-09-14T00:08:58.159Z,81.30
2022-09-14T00:11:29.339Z,82.60
2022-09-14T00:13:59.303Z,82.30
2022-09-14T00:16:29.973Z,82.40
2022-09-14T00:19:00.330Z,81.00
2022-09-14T00:21:29.134Z,82.50
2022-09-14T00:23:56.992Z,82.90
2022-09-14T00:26:25.742Z,83.00
2022-09-14T00:28:57.777Z,83.30
2022-09-14T00:31:27.248Z,82.90
2022-09-14T00:33:55.430Z,82.10
2022-09-14T00:36:26.193Z,83.00
2022-09-14T00:38:56.521Z,82.20
2022-09-14T00:41:27.605Z,83.00
2022-09-14T00:43:59.282Z,83.20
2022-09-14T00:46:28.982Z,83.50
2022-09-14T00:49:00.083Z,83.20
2022-09-14T00:51:30.178Z,82.40
2022-09-14T00:53:58.432Z,82.50
2022-09-14T00:56:27.070Z,84.00
2022-09-14T00:58:56.216Z,83.70
2022-09-14T01:01:26.458Z,84.10
2022-09-14T01:03:54.460Z,83.70
2022-09-14T01:06:35.391Z,82.90
2022-09-14T01:09:21.479Z,83.70
2022-09-14T01:12:01.887Z,83.40
2022-09-14T01:14:39.066Z,82.50
2022-09-14T01:17:13.227Z,82.80
2022-09-14T01:20:03.242Z,82.90
2022-09-14T01:22:37.845Z,84.00
2022-09-14T01:25:22.650Z,83.90
2022-09-14T01:27:52.897Z,83.50
2022-09-14T01:30:23.967Z,83.40
2022-09-14T01:32:56.174Z,85.30
2022-09-14T01:35:29.450Z,84.60
2022-09-14T01:38:02.480Z,83.60
2022-09-14T01:40:34.081Z,82.60
2022-09-14T01:43:07.891Z,83.00
2022-09-14T01:45:38.417Z,83.40
2022-09-14T01:48:09.931Z,82.90
2022-09-14T01:50:41.982Z,84.30
2022-09-14T01:53:14.264Z,84.60
2022-09-14T01:55:45.787Z,84.70
2022-09-14T01:58:22.683Z,83.50
2022-09-14T02:00:51.774Z,83.10
2022-09-14T02:03:23.607Z,83.90
2022-09-14T02:05:57.057Z,84.00
2022-09-14T02:08:27.195Z,83.40
2022-09-14T02:10:55.198Z,85.10
2022-09-14T02:13:25.051Z,84.80
2022-09-14T02:15:53.286Z,85.00
2022-09-14T02:18:22.697Z,84.50
2022-09-14T02:20:56.532Z,83.20
2022-09-14T02:23:24.761Z,84.80
2022-09-14T02:25:52.874Z,85.10
2022-09-14T02:28:20.916Z,84.40
2022-09-14T02:31:02.571Z,83.40
2022-09-14T02:33:41.521Z,84.20
2022-09-14T02:36:17.627Z,84.80
2022-09-14T02:38:53.482Z,84.50
2022-09-14T02:41:31.044Z,84.80
2022-09-14T02:44:05.699Z,85.20
2022-09-14T02:46:46.003Z,85.20
2022-09-14T02:49:19.570Z,85.20
2022-09-14T02:51:53.231Z,85.40
2022-09-14T02:54:27.384Z,84.70
2022-09-14T02:56:55.269Z,84.70
2022-09-14T02:59:23.152Z,84.90
2022-09-14T03:01:52.450Z,85.20
2022-09-14T03:04:20.307Z,85.30
2022-09-14T03:06:48.168Z,86.40
2022-09-14T03:09:16.126Z,86.00
2022-09-14T03:11:44.067Z,85.60
2022-09-14T03:14:12.665Z,85.80
2022-09-14T03:16:41.063Z,85.50
2022-09-14T03:19:11.073Z,85.80
2022-09-14T03:21:40.398Z,86.00
2022-09-14T03:24:08.582Z,85.50
2022-09-14T03:26:38.603Z,86.20
2022-09-14T03:29:07.422Z,85.30
2022-09-14T03:31:35.681Z,85.20
2022-09-14T03:34:04.056Z,85.50
2022-09-14T03:36:33.351Z,85.20
2022-09-14T03:39:02.768Z,85.20
2022-09-14T03:41:30.860Z,85.80
2022-09-14T03:43:58.679Z,85.00
2022-09-14T03:46:27.236Z,85.30
2022-09-14T03:48:56.034Z,85.40
2022-09-14T03:51:24.467Z,85.50
2022-09-14T03:53:53.875Z,85.40
2022-09-14T03:56:23.511Z,85.00
2022-09-14T03:58:51.917Z,85.00
2022-09-14T04:01:22.130Z,85.30
2022-09-14T04:03:51.051Z,85.30
2022-09-14T04:06:20.157Z,86.00
2022-09-14T04:08:48.722Z,86.70
2022-09-14T04:11:20.271Z,85.90
2022-09-14T04:13:48.748Z,85.50
2022-09-14T04:16:17.798Z,85.50
2022-09-14T04:18:46.142Z,85.50
2022-09-14T04:21:15.825Z,85.30
2022-09-14T04:24:12.825Z,85.30
2022-09-14T04:26:33.699Z,87.00
2022-09-14T04:29:01.615Z,87.00
2022-09-14T04:31:29.714Z,86.40
2022-09-14T04:33:58.059Z,85.90
2022-09-14T04:36:30.948Z,86.10
2022-09-14T04:39:00.712Z,85.60
2022-09-14T04:41:29.733Z,85.90
2022-09-14T04:44:00.101Z,86.10
2022-09-14T04:46:29.853Z,85.40
2022-09-14T04:48:58.347Z,85.50
2022-09-14T04:51:28.536Z,85.40
2022-09-14T04:53:59.179Z,84.70
2022-09-14T04:56:28.410Z,86.10
2022-09-14T04:58:59.608Z,86.60
2022-09-14T05:01:30.408Z,87.00
2022-09-14T05:03:59.058Z,86.70
2022-09-14T05:06:29.213Z,86.50
2022-09-14T05:08:59.934Z,85.90
2022-09-14T05:11:29.867Z,86.60
2022-09-14T05:14:00.498Z,87.10
2022-09-14T05:16:30.237Z,86.70
2022-09-14T05:19:01.270Z,86.40
2022-09-14T05:21:30.482Z,86.10
2022-09-14T05:24:00.224Z,86.70
2022-09-14T05:26:30.072Z,86.30
2022-09-14T05:29:01.139Z,86.50
2022-09-14T05:31:30.438Z,86.40
2022-09-14T05:33:58.536Z,86.40
2022-09-14T05:36:26.773Z,86.70
2022-09-14T07:13:14.883Z,87.50
2022-09-14T07:15:50.114Z,88.10
2022-09-14T07:18:18.179Z,87.70
2022-09-14T07:20:46.537Z,88.40
2022-09-14T07:23:14.550Z,88.30
2022-09-14T07:25:42.467Z,88.50
2022-09-14T07:28:10.505Z,87.80
2022-09-14T07:30:41.574Z,87.30
2022-09-14T07:33:09.569Z,87.20
2022-09-14T07:35:37.520Z,87.80
2022-09-14T07:38:05.403Z,87.70
2022-09-14T07:40:33.605Z,87.50
2022-09-14T07:43:01.939Z,87.10
2022-09-14T07:45:30.044Z,86.50
2022-09-14T07:47:59.335Z,87.10
2022-09-14T07:50:27.183Z,86.10
2022-09-14T07:52:55.079Z,85.40
2022-09-14T07:55:22.996Z,86.10
2022-09-14T07:57:56.490Z,85.50
2022-09-14T08:00:25.622Z,86.20
2022-09-14T08:02:55.268Z,86.20
2022-09-14T08:05:24.669Z,87.10
2022-09-14T08:07:55.620Z,87.40
2022-09-14T08:10:24.008Z,87.00
2022-09-14T08:12:52.913Z,84.80
2022-09-14T08:15:28.259Z,85.00
2022-09-14T08:17:56.561Z,84.70
2022-09-14T08:20:25.864Z,84.60
2022-09-14T08:22:53.787Z,84.10
2022-09-14T08:25:21.730Z,82.20
2022-09-14T08:27:49.655Z,82.90
2022-09-14T08:30:17.742Z,82.80
2022-09-14T08:32:46.832Z,83.60
2022-09-14T08:35:14.898Z,81.30
2022-09-14T08:37:44.576Z,82.50
2022-09-14T08:40:15.728Z,81.90
2022-09-14T08:42:45.291Z,82.00
2022-09-14T08:45:18.472Z,81.70
2022-09-14T08:47:48.186Z,81.50
2022-09-14T08:50:21.889Z,82.20
2022-09-14T08:52:55.743Z,80.40
2022-09-14T08:55:35.343Z,80.40
2022-09-14T08:58:09.268Z,80.80
2022-09-14T09:00:43.907Z,82.00
2022-09-14T09:03:44.678Z,82.00
2022-09-14T09:06:19.681Z,82.30
2022-09-14T09:09:01.660Z,82.60
2022-09-14T09:11:39.758Z,83.20
2022-09-14T09:14:28.301Z,81.30
2022-09-14T09:17:01.258Z,82.00
2022-09-14T09:19:34.315Z,78.90
2022-09-14T09:22:07.547Z,81.50
2022-09-14T09:24:42.861Z,81.00
2022-09-14T09:27:13.519Z,80.20
2022-09-14T09:29:43.828Z,81.40
2022-09-14T09:32:19.745Z,80.20
2022-09-14T09:34:49.934Z,81.80
2022-09-14T09:37:21.900Z,78.50
2022-09-14T09:39:53.963Z,81.40
2022-09-14T09:42:25.378Z,81.10
2022-09-14T09:45:03.703Z,80.00
2022-09-14T09:47:49.240Z,78.40
2022-09-14T09:50:22.191Z,78.50
2022-09-14T09:52:53.761Z,78.60
2022-09-14T09:55:30.756Z,79.60
2022-09-14T09:58:00.423Z,81.20
2022-09-14T10:00:31.459Z,82.00
2022-09-14T10:03:03.448Z,81.70
2022-09-14T10:05:34.148Z,80.60
2022-09-14T10:08:11.591Z,80.40
2022-09-14T10:10:46.248Z,79.70
2022-09-14T10:13:28.779Z,79.70
2022-09-14T10:16:16.141Z,78.90
2022-09-14T10:18:49.075Z,79.20
2022-09-14T10:21:20.722Z,78.80
2022-09-14T10:24:10.490Z,79.80
2022-09-14T10:26:41.358Z,80.20
2022-09-14T10:29:41.001Z,80.40
2022-09-14T10:32:21.363Z,79.60
2022-09-14T10:34:52.316Z,80.30
2022-09-14T10:37:32.799Z,80.80
2022-09-14T10:40:17.028Z,82.00
2022-09-14T10:43:15.773Z,73.90
2022-09-14T10:45:52.188Z,71.70
2022-09-14T10:48:47.108Z,71.50
2022-09-14T10:51:33.194Z,73.50
2022-09-14T10:54:16.870Z,72.80
2022-09-14T10:57:00.257Z,73.20
2022-09-14T10:59:35.605Z,71.90
2022-09-14T11:02:40.984Z,73.10
2022-09-14T11:05:17.364Z,73.50
2022-09-14T11:07:57.038Z,73.10
2022-09-14T11:10:31.219Z,74.50
2022-09-14T11:13:33.733Z,74.80
2022-09-14T11:16:14.902Z,76.30
2022-09-14T11:18:52.565Z,76.80
2022-09-14T11:21:33.028Z,77.90
2022-09-14T11:24:07.842Z,78.10
2022-09-14T11:26:42.624Z,78.20
2022-09-14T11:29:20.800Z,75.80
2022-09-14T11:32:10.473Z,76.00
2022-09-14T11:34:47.891Z,76.30
2022-09-14T11:37:21.930Z,75.80
2022-09-14T11:40:08.618Z,76.20
2022-09-14T11:42:42.593Z,75.50
2022-09-14T11:49:03.651Z,70.80
2022-09-14T11:54:42.421Z,72.00
2022-09-14T11:57:21.782Z,72.30
2022-09-14T11:59:54.422Z,71.40
2022-09-14T12:03:15.491Z,71.40
2022-09-14T12:05:49.367Z,70.70
2022-09-14T12:08:40.299Z,71.30
2022-09-14T12:11:28.677Z,72.10
2022-09-14T12:14:26.897Z,73.80
2022-09-14T12:17:38.788Z,74.90
2022-09-14T12:20:36.149Z,74.40
2022-09-14T12:23:29.541Z,74.40
2022-09-14T12:26:38.206Z,74.60
2022-09-14T12:29:28.191Z,75.00
2022-09-14T12:32:25.854Z,74.10
2022-09-14T12:35:30.818Z,75.10
2022-09-14T12:37:58.982Z,75.70
2022-09-14T12:40:38.906Z,73.80
2022-09-14T12:43:48.641Z,75.90
2022-09-14T12:46:38.886Z,74.10
2022-09-14T12:49:27.229Z,75.40
2022-09-14T12:51:56.250Z,75.90
2022-09-14T12:54:32.583Z,76.50
2022-09-14T12:57:12.335Z,75.60
2022-09-14T12:59:49.591Z,75.30
2022-09-14T13:02:54.242Z,76.40
2022-09-14T13:05:25.967Z,76.80
2022-09-14T13:07:55.950Z,76.90
2022-09-14T13:10:31.004Z,77.70
2022-09-14T13:13:03.043Z,77.80
2022-09-14T13:15:34.097Z,77.50
2022-09-14T13:18:04.269Z,78.10
2022-09-14T13:20:34.033Z,78.00
2022-09-14T13:23:02.583Z,78.10
2022-09-14T13:25:34.821Z,78.00
2022-09-14T13:28:07.724Z,79.30
2022-09-14T13:30:37.224Z,79.50
2022-09-14T13:33:05.513Z,79.30
2022-09-14T13:35:39.237Z,79.70
2022-09-14T13:38:09.845Z,80.10
2022-09-14T13:40:38.286Z,80.40
2022-09-14T13:43:07.958Z,80.50
2022-09-14T13:45:37.147Z,80.20
2022-09-14T13:48:07.099Z,80.30
2022-09-14T13:50:35.695Z,80.40
2022-09-14T13:53:04.604Z,80.30
2022-09-14T13:55:44.961Z,80.70
2022-09-14T13:58:21.133Z,80.60
2022-09-14T14:00:55.295Z,80.20
2022-09-14T14:03:41.867Z,79.80
2022-09-14T14:06:23.690Z,80.10
2022-09-14T14:09:01.268Z,81.00
2022-09-14T14:11:38.065Z,81.40
2022-09-14T14:14:19.092Z,81.40
2022-09-14T14:17:21.160Z,81.70
2022-09-14T14:19:49.595Z,81.90
2022-09-14T14:22:30.739Z,81.70
2022-09-14T14:25:13.266Z,82.00
2022-09-14T14:27:44.433Z,82.10
2022-09-14T14:30:18.197Z,82.20
2022-09-14T14:32:50.900Z,81.20
2022-09-14T14:35:22.452Z,81.50
2022-09-14T14:37:50.973Z,82.20
2022-09-14T14:40:20.106Z,82.50
2022-09-14T14:42:49.264Z,81.90
2022-09-14T14:45:22.111Z,81.40
2022-09-14T14:47:51.551Z,81.70
2022-09-14T14:50:22.094Z,81.50
2022-09-14T14:52:50.217Z,80.10
2022-09-14T14:55:18.290Z,80.40
2022-09-14T14:57:46.335Z,80.10
2022-09-14T15:00:16.402Z,80.80
2022-09-14T15:02:46.136Z,80.70
2022-09-14T15:05:14.280Z,80.20
2022-09-14T15:07:42.690Z,80.60
2022-09-14T15:10:14.428Z,81.30
2022-09-14T15:12:42.439Z,81.20
2022-09-14T15:15:14.550Z,81.60
2022-09-14T15:17:42.994Z,82.70
2022-09-14T15:20:13.459Z,82.00
2022-09-14T15:22:42.404Z,82.00
2022-09-14T15:25:12.199Z,82.20
2022-09-14T15:27:40.702Z,82.80
2022-09-14T15:30:11.577Z,83.60
2022-09-14T15:32:40.398Z,83.60
2022-09-14T15:35:13.069Z,84.70
2022-09-14T15:37:41.161Z,86.10
2022-09-14T15:40:10.710Z,87.40
2022-09-14T15:42:38.680Z,88.50
2022-09-14T15:45:07.567Z,89.40
2022-09-14T15:47:36.553Z,87.70
2022-09-14T15:50:05.654Z,88.50
2022-09-14T15:52:37.406Z,89.10
2022-09-14T15:55:06.516Z,90.10
2022-09-14T15:57:34.565Z,90.20
2022-09-14T16:00:04.522Z,90.30
2022-09-14T16:02:32.575Z,90.40
2022-09-14T16:05:00.531Z,90.70
2022-09-14T16:07:29.741Z,90.70
2022-09-14T16:09:59.289Z,90.70
2022-09-14T16:12:27.491Z,90.80
2022-09-14T16:14:55.773Z,90.70
2022-09-14T16:17:23.749Z,90.70
2022-09-14T16:19:51.889Z,90.70
2022-09-14T16:22:19.938Z,90.60
2022-09-14T16:24:47.954Z,90.60
2022-09-14T16:27:17.448Z,90.80
2022-09-14T16:29:45.369Z,90.80
2022-09-14T16:32:13.690Z,90.80
2022-09-14T16:34:41.677Z,90.80
2022-09-14T16:37:09.775Z,90.80
2022-09-14T16:39:37.965Z,91.00
2022-09-14T16:42:06.689Z,90.80
2022-09-14T16:44:36.077Z,90.90
2022-09-14T16:47:04.396Z,90.90
2022-09-14T16:49:32.248Z,90.90
2022-09-14T16:52:00.988Z,90.80
2022-09-14T16:54:29.817Z,90.90
2022-09-14T16:56:59.372Z,90.90
2022-09-14T16:59:27.713Z,90.80
2022-09-14T17:01:57.231Z,90.90
2022-09-14T17:04:26.289Z,91.00
2022-09-14T17:06:56.213Z,90.90
2022-09-14T17:09:26.450Z,90.90
2022-09-14T17:11:56.540Z,90.90
2022-09-14T17:14:26.652Z,91.00
2022-09-14T17:16:56.441Z,91.10
2022-09-14T17:19:25.167Z,91.40
2022-09-14T17:21:53.982Z,91.00
2022-09-14T17:24:22.805Z,91.00
2022-09-14T17:26:51.031Z,91.10
2022-09-14T17:29:19.531Z,91.20
2022-09-14T17:31:47.835Z,91.10
2022-09-14T17:34:17.803Z,91.20
2022-09-14T17:36:46.282Z,91.20
2022-09-14T17:39:15.615Z,91.20
2022-09-14T17:41:44.222Z,91.20
2022-09-14T17:44:13.614Z,91.00
2022-09-14T17:46:51.248Z,91.20
2022-09-14T17:49:22.864Z,91.20
2022-09-14T17:51:51.615Z,91.30
2022-09-14T17:54:20.396Z,91.50
2022-09-14T17:56:48.782Z,91.20
2022-09-14T17:59:20.087Z,91.30
2022-09-14T18:01:48.683Z,91.20
2022-09-14T18:04:17.104Z,91.20
2022-09-14T18:06:47.999Z,91.10
2022-09-14T18:09:19.057Z,91.00
2022-09-14T18:11:47.907Z,90.80
2022-09-14T18:14:16.160Z,90.70
2022-09-14T18:16:45.240Z,90.90
2022-09-14T18:19:13.677Z,91.20
2022-09-14T18:21:41.925Z,91.30
2022-09-14T18:24:12.217Z,91.40
2022-09-14T18:26:40.131Z,91.30
2022-09-14T18:29:08.200Z,91.20
2022-09-14T18:31:36.154Z,91.10
2022-09-14T18:34:04.269Z,91.30
2022-09-14T18:36:32.590Z,91.10
2022-09-14T18:39:00.613Z,91.10
2022-09-14T18:41:31.359Z,91.10
2022-09-14T18:43:59.811Z,91.00
2022-09-14T18:46:28.976Z,90.80
2022-09-14T18:48:59.101Z,90.80
2022-09-14T18:51:27.849Z,90.90
2022-09-14T18:53:59.024Z,90.80
2022-09-14T18:56:28.000Z,91.00
2022-09-14T18:58:57.669Z,91.00
2022-09-14T19:01:26.020Z,91.00
2022-09-14T19:03:56.032Z,91.00
2022-09-14T19:06:24.430Z,90.80
2022-09-14T19:08:52.677Z,90.90
2022-09-14T19:11:22.157Z,91.00
2022-09-14T19:13:55.590Z,90.60
2022-09-14T19:16:25.227Z,90.60
2022-09-14T19:18:53.199Z,90.50
2022-09-14T19:21:24.126Z,90.70
2022-09-14T19:24:00.206Z,90.80
2022-09-14T19:26:30.299Z,91.00
2022-09-14T19:28:59.950Z,91.00
2022-09-14T19:31:30.663Z,91.10
2022-09-14T19:33:59.340Z,91.00
2022-09-14T19:36:28.369Z,91.00
2022-09-14T19:38:57.825Z,90.90
2022-09-14T19:41:26.170Z,90.90
2022-09-14T19:43:54.231Z,91.10
2022-09-14T19:46:23.923Z,90.90
2022-09-14T19:48:53.833Z,91.00
2022-09-14T19:51:23.781Z,91.00
2022-09-14T19:53:53.560Z,91.00
2022-09-14T19:56:25.367Z,91.00
2022-09-14T19:58:55.874Z,91.00
2022-09-14T20:01:25.495Z,91.20
2022-09-14T20:03:55.404Z,91.20
2022-09-14T20:06:25.984Z,91.10
2022-09-14T20:08:56.947Z,91.10
2022-09-14T20:11:26.673Z,91.10
2022-09-14T20:13:55.474Z,91.20
2022-09-14T20:16:25.335Z,91.30
2022-09-14T20:18:54.696Z,91.30
2022-09-14T20:21:24.277Z,91.30
2022-09-14T20:24:14.571Z,91.30
2022-09-14T20:26:44.090Z,91.30
2022-09-14T20:29:12.488Z,91.30
2022-09-14T20:31:40.353Z,91.20
2022-09-14T20:34:09.828Z,91.30
2022-09-14T20:36:37.838Z,91.20
2022-09-14T20:39:06.161Z,91.40
2022-09-14T20:41:35.692Z,91.30
2022-09-14T20:44:04.607Z,91.30
2022-09-14T20:46:35.992Z,91.40
2022-09-14T20:49:05.493Z,91.30
2022-09-14T20:51:36.044Z,91.30
2022-09-14T20:54:04.995Z,91.10
2022-09-14T20:56:34.583Z,91.20
2022-09-14T20:59:05.463Z,91.30
2022-09-14T21:01:37.022Z,91.30
2022-09-14T21:04:06.627Z,91.30
2022-09-14T21:06:37.629Z,91.20
2022-09-14T21:09:05.969Z,91.20
2022-09-14T21:11:34.051Z,91.30
2022-09-14T21:14:02.393Z,91.30
2022-09-14T21:16:32.009Z,91.30
2022-09-14T21:19:01.783Z,91.40
2022-09-14T21:21:30.567Z,91.20
2022-09-14T21:24:00.950Z,91.30
2022-09-14T21:26:33.880Z,91.30
2022-09-14T21:29:03.553Z,91.40
2022-09-14T21:31:31.463Z,91.30
2022-09-14T21:34:01.599Z,91.40
2022-09-14T21:36:34.524Z,91.40
2022-09-14T21:39:06.772Z,91.40
2022-09-14T21:41:34.678Z,91.20
2022-09-14T21:44:03.060Z,91.40
2022-09-14T21:46:31.110Z,91.40
2022-09-14T21:48:59.069Z,91.50
2022-09-14T21:51:29.205Z,91.50
2022-09-14T21:53:58.767Z,91.50
2022-09-14T21:56:29.659Z,91.50
2022-09-14T21:58:59.327Z,91.50
2022-09-14T22:01:27.982Z,91.60
2022-09-14T22:03:56.850Z,91.60
2022-09-14T22:06:27.351Z,92.10
2022-09-14T22:08:56.303Z,91.80
2022-09-14T22:11:26.442Z,91.80
2022-09-14T22:13:56.766Z,91.80
2022-09-14T22:16:26.624Z,91.90
2022-09-14T22:18:57.352Z,92.00
2022-09-14T22:21:27.137Z,91.90
2022-09-14T22:23:56.397Z,92.00
2022-09-14T22:26:25.222Z,92.00
2022-09-14T22:28:55.287Z,92.00
2022-09-14T22:31:24.350Z,92.00
2022-09-14T22:33:55.316Z,92.10
2022-09-14T22:36:24.008Z,92.10
2022-09-14T22:38:52.068Z,92.10
2022-09-14T22:41:22.589Z,92.10
2022-09-14T22:43:50.732Z,92.10
2022-09-14T22:46:21.126Z,92.00
2022-09-14T22:48:50.484Z,92.10
2022-09-14T22:51:20.362Z,92.10
2022-09-14T22:53:48.473Z,92.10
2022-09-14T22:56:18.635Z,92.10
2022-09-14T22:58:47.805Z,92.10
2022-09-14T23:01:17.447Z,92.10
2022-09-14T23:03:47.000Z,92.10
2022-09-14T23:06:15.575Z,92.10
2022-09-14T23:08:43.715Z,92.10
2022-09-14T23:11:14.098Z,92.10
2022-09-14T23:13:43.422Z,92.10
2022-09-14T23:16:13.145Z,92.20
2022-09-14T23:18:41.689Z,92.10
2022-09-14T23:21:13.128Z,92.10
2022-09-14T23:23:41.096Z,92.10
2022-09-14T23:26:10.947Z,92.10
2022-09-14T23:28:39.657Z,92.10
2022-09-14T23:31:07.900Z,92.10
2022-09-14T23:33:35.826Z,92.00
2022-09-14T23:36:04.012Z,92.00
2022-09-14T23:38:35.416Z,92.10
2022-09-14T23:41:03.289Z,92.00
2022-09-14T23:43:31.160Z,92.40
2022-09-14T23:45:59.081Z,92.00
2022-09-14T23:48:27.279Z,92.00
2022-09-14T23:50:59.315Z,92.00
2022-09-14T23:53:27.811Z,92.00
2022-09-14T23:55:57.427Z,92.00
2022-09-14T23:58:25.916Z,92.00
